sensor_id;sensor_type;location;lat;lon;timestamp;temperature;humidity
36818;DHT22;22761;51.542;16.450;2022-12-29T00:02:02;9.36;64.23
36818;DHT22;22761;51.542;16.450;2022-12-29T00:04:30;9.36;64.18
36818;DHT22;22761;51.542;16.450;2022-12-29T00:06:57;9.36;64.13
36818;DHT22;22761;51.542;16.450;2022-12-29T00:09:26;9.37;64.00
36818;DHT22;22761;51.542;16.450;2022-12-29T00:11:53;9.33;64.02
36818;DHT22;22761;51.542;16.450;2022-12-29T00:14:20;9.33;63.92
36818;DHT22;22761;51.542;16.450;2022-12-29T00:17:05;9.36;64.00
36818;DHT22;22761;51.542;16.450;2022-12-29T00:19:33;9.34;64.05
36818;DHT22;22761;51.542;16.450;2022-12-29T00:22:18;9.36;63.95
36818;DHT22;22761;51.542;16.450;2022-12-29T00:25:05;9.37;63.77
36818;DHT22;22761;51.542;16.450;2022-12-29T00:27:50;9.38;63.69
36818;DHT22;22761;51.542;16.450;2022-12-29T00:30:36;9.41;63.54
36818;DHT22;22761;51.542;16.450;2022-12-29T00:33:26;9.38;63.66
36818;DHT22;22761;51.542;16.450;2022-12-29T00:36:30;9.44;63.50
36818;DHT22;22761;51.542;16.450;2022-12-29T00:39:08;9.41;63.38
36818;DHT22;22761;51.542;16.450;2022-12-29T00:41:50;9.41;63.23
36818;DHT22;22761;51.542;16.450;2022-12-29T00:44:36;9.41;63.32
36818;DHT22;22761;51.542;16.450;2022-12-29T00:47:03;9.41;63.32
36818;DHT22;22761;51.542;16.450;2022-12-29T00:49:32;9.44;63.20
36818;DHT22;22761;51.542;16.450;2022-12-29T00:52:07;9.40;63.23
36818;DHT22;22761;51.542;16.450;2022-12-29T00:54:40;9.41;63.28
36818;DHT22;22761;51.542;16.450;2022-12-29T00:57:09;9.38;63.34
36818;DHT22;22761;51.542;16.450;2022-12-29T00:59:41;9.38;63.36
36818;DHT22;22761;51.542;16.450;2022-12-29T01:02:10;9.38;63.27
36818;DHT22;22761;51.542;16.450;2022-12-29T01:04:37;9.41;63.19
36818;DHT22;22761;51.542;16.450;2022-12-29T01:07:04;9.37;63.25
36818;DHT22;22761;51.542;16.450;2022-12-29T01:09:32;9.36;63.40
36818;DHT22;22761;51.542;16.450;2022-12-29T01:12:18;9.34;63.50
36818;DHT22;22761;51.542;16.450;2022-12-29T01:14:47;9.31;63.51
36818;DHT22;22761;51.542;16.450;2022-12-29T01:17:14;9.31;63.62
36818;DHT22;22761;51.542;16.450;2022-12-29T01:19:41;9.31;63.52
36818;DHT22;22761;51.542;16.450;2022-12-29T01:22:08;9.31;63.58
36818;DHT22;22761;51.542;16.450;2022-12-29T01:24:35;9.30;63.57
36818;DHT22;22761;51.542;16.450;2022-12-29T01:27:18;9.29;63.65
36818;DHT22;22761;51.542;16.450;2022-12-29T01:29:39;9.26;63.74
36818;DHT22;22761;51.542;16.450;2022-12-29T01:32:06;9.29;63.67
36818;DHT22;22761;51.542;16.450;2022-12-29T01:34:33;9.30;63.52
36818;DHT22;22761;51.542;16.450;2022-12-29T01:37:00;9.29;63.56
36818;DHT22;22761;51.542;16.450;2022-12-29T01:39:27;9.26;63.72
36818;DHT22;22761;51.542;16.450;2022-12-29T01:41:54;9.27;63.58
36818;DHT22;22761;51.542;16.450;2022-12-29T01:44:50;9.26;63.60
36818;DHT22;22761;51.542;16.450;2022-12-29T01:53:16;9.23;63.88
36818;DHT22;22761;51.542;16.450;2022-12-29T01:55:50;9.23;63.84
36818;DHT22;22761;51.542;16.450;2022-12-29T01:58:21;9.20;63.92
36818;DHT22;22761;51.542;16.450;2022-12-29T02:00:49;9.22;63.94
36818;DHT22;22761;51.542;16.450;2022-12-29T02:03:17;9.20;63.92
36818;DHT22;22761;51.542;16.450;2022-12-29T02:05:54;9.20;63.87
36818;DHT22;22761;51.542;16.450;2022-12-29T02:08:23;9.16;63.88
36818;DHT22;22761;51.542;16.450;2022-12-29T02:10:51;9.16;63.88
36818;DHT22;22761;51.542;16.450;2022-12-29T02:13:23;9.17;63.85
36818;DHT22;22761;51.542;16.450;2022-12-29T02:21:59;9.23;63.67
36818;DHT22;22761;51.542;16.450;2022-12-29T02:33:18;9.27;63.13
36818;DHT22;22761;51.542;16.450;2022-12-29T02:42:12;9.34;62.80
36818;DHT22;22761;51.542;16.450;2022-12-29T02:45:06;9.34;62.85
36818;DHT22;22761;51.542;16.450;2022-12-29T02:47:57;9.38;62.69
36818;DHT22;22761;51.542;16.450;2022-12-29T02:50:43;9.37;62.42
36818;DHT22;22761;51.542;16.450;2022-12-29T02:53:11;9.38;62.45
36818;DHT22;22761;51.542;16.450;2022-12-29T02:55:38;9.40;62.33
36818;DHT22;22761;51.542;16.450;2022-12-29T02:58:21;9.41;62.53
36818;DHT22;22761;51.542;16.450;2022-12-29T03:01:02;9.43;62.44
36818;DHT22;22761;51.542;16.450;2022-12-29T03:09:43;9.59;62.13
36818;DHT22;22761;51.542;16.450;2022-12-29T03:15:42;9.64;62.08
36818;DHT22;22761;51.542;16.450;2022-12-29T03:18:47;9.66;61.96
36818;DHT22;22761;51.542;16.450;2022-12-29T03:21:20;9.69;62.31
36818;DHT22;22761;51.542;16.450;2022-12-29T03:23:48;9.66;62.65
36818;DHT22;22761;51.542;16.450;2022-12-29T03:26:17;9.71;63.10
36818;DHT22;22761;51.542;16.450;2022-12-29T03:28:52;9.72;63.34
36818;DHT22;22761;51.542;16.450;2022-12-29T03:31:22;9.72;63.33
36818;DHT22;22761;51.542;16.450;2022-12-29T03:33:51;9.71;62.89
36818;DHT22;22761;51.542;16.450;2022-12-29T03:36:47;9.71;62.91
36818;DHT22;22761;51.542;16.450;2022-12-29T03:39:12;9.69;62.82
36818;DHT22;22761;51.542;16.450;2022-12-29T03:41:44;9.73;62.65
36818;DHT22;22761;51.542;16.450;2022-12-29T03:44:13;9.71;62.54
36818;DHT22;22761;51.542;16.450;2022-12-29T03:46:40;9.78;62.64
36818;DHT22;22761;51.542;16.450;2022-12-29T03:49:08;9.82;62.14
36818;DHT22;22761;51.542;16.450;2022-12-29T03:51:35;9.84;62.30
36818;DHT22;22761;51.542;16.450;2022-12-29T03:54:02;9.86;62.76
36818;DHT22;22761;51.542;16.450;2022-12-29T03:56:29;9.85;62.75
36818;DHT22;22761;51.542;16.450;2022-12-29T03:58:58;9.84;63.00
36818;DHT22;22761;51.542;16.450;2022-12-29T04:01:30;9.84;63.38
36818;DHT22;22761;51.542;16.450;2022-12-29T04:03:57;9.82;63.59
36818;DHT22;22761;51.542;16.450;2022-12-29T04:06:24;9.82;63.50
36818;DHT22;22761;51.542;16.450;2022-12-29T04:08:54;9.81;63.52
36818;DHT22;22761;51.542;16.450;2022-12-29T04:11:21;9.79;63.49
36818;DHT22;22761;51.542;16.450;2022-12-29T04:13:50;9.75;63.65
36818;DHT22;22761;51.542;16.450;2022-12-29T04:16:18;9.73;63.74
36818;DHT22;22761;51.542;16.450;2022-12-29T04:18:45;9.73;63.81
36818;DHT22;22761;51.542;16.450;2022-12-29T04:21:12;9.76;63.16
36818;DHT22;22761;51.542;16.450;2022-12-29T04:23:41;9.78;63.07
36818;DHT22;22761;51.542;16.450;2022-12-29T04:26:09;9.78;63.21
36818;DHT22;22761;51.542;16.450;2022-12-29T04:28:47;9.84;62.72
36818;DHT22;22761;51.542;16.450;2022-12-29T04:31:16;9.84;62.58
36818;DHT22;22761;51.542;16.450;2022-12-29T04:33:45;9.86;62.09
36818;DHT22;22761;51.542;16.450;2022-12-29T04:36:12;9.89;61.96
36818;DHT22;22761;51.542;16.450;2022-12-29T04:38:39;9.93;61.83
36818;DHT22;22761;51.542;16.450;2022-12-29T04:41:07;9.95;61.81
36818;DHT22;22761;51.542;16.450;2022-12-29T04:43:35;10.00;61.27
36818;DHT22;22761;51.542;16.450;2022-12-29T04:46:05;10.06;61.14
36818;DHT22;22761;51.542;16.450;2022-12-29T04:48:50;10.05;61.26
36818;DHT22;22761;51.542;16.450;2022-12-29T04:51:31;10.10;60.78
36818;DHT22;22761;51.542;16.450;2022-12-29T04:53:58;10.13;61.15
36818;DHT22;22761;51.542;16.450;2022-12-29T04:56:27;10.14;60.87
36818;DHT22;22761;51.542;16.450;2022-12-29T04:58:54;10.17;60.90
36818;DHT22;22761;51.542;16.450;2022-12-29T05:01:21;10.20;60.97
36818;DHT22;22761;51.542;16.450;2022-12-29T05:03:50;10.23;60.94
36818;DHT22;22761;51.542;16.450;2022-12-29T05:06:18;10.27;60.68
36818;DHT22;22761;51.542;16.450;2022-12-29T05:08:46;10.30;60.78
36818;DHT22;22761;51.542;16.450;2022-12-29T05:11:13;10.35;60.28
36818;DHT22;22761;51.542;16.450;2022-12-29T05:13:40;10.37;60.31
36818;DHT22;22761;51.542;16.450;2022-12-29T05:16:08;10.37;60.05
36818;DHT22;22761;51.542;16.450;2022-12-29T05:18:35;10.37;60.28
36818;DHT22;22761;51.542;16.450;2022-12-29T05:21:03;10.38;60.47
36818;DHT22;22761;51.542;16.450;2022-12-29T05:23:31;10.41;60.56
36818;DHT22;22761;51.542;16.450;2022-12-29T05:26:02;10.40;60.50
36818;DHT22;22761;51.542;16.450;2022-12-29T05:28:48;10.37;60.38
36818;DHT22;22761;51.542;16.450;2022-12-29T05:31:17;10.37;60.30
36818;DHT22;22761;51.542;16.450;2022-12-29T05:33:44;10.33;60.33
36818;DHT22;22761;51.542;16.450;2022-12-29T05:36:13;10.33;60.13
36818;DHT22;22761;51.542;16.450;2022-12-29T05:38:41;10.34;60.08
36818;DHT22;22761;51.542;16.450;2022-12-29T05:41:09;10.28;60.13
36818;DHT22;22761;51.542;16.450;2022-12-29T05:43:41;10.26;60.34
36818;DHT22;22761;51.542;16.450;2022-12-29T05:46:10;10.20;60.33
36818;DHT22;22761;51.542;16.450;2022-12-29T05:48:39;10.19;60.39
36818;DHT22;22761;51.542;16.450;2022-12-29T05:51:07;10.14;60.40
36818;DHT22;22761;51.542;16.450;2022-12-29T05:53:42;10.07;60.78
36818;DHT22;22761;51.542;16.450;2022-12-29T05:56:09;10.06;60.84
36818;DHT22;22761;51.542;16.450;2022-12-29T05:58:36;10.00;60.90
36818;DHT22;22761;51.542;16.450;2022-12-29T06:01:04;10.02;60.85
36818;DHT22;22761;51.542;16.450;2022-12-29T06:03:32;10.00;60.98
36818;DHT22;22761;51.542;16.450;2022-12-29T06:05:59;10.00;61.02
36818;DHT22;22761;51.542;16.450;2022-12-29T06:08:27;9.98;61.42
36818;DHT22;22761;51.542;16.450;2022-12-29T06:10:54;9.99;61.38
36818;DHT22;22761;51.542;16.450;2022-12-29T06:13:21;10.00;61.30
36818;DHT22;22761;51.542;16.450;2022-12-29T06:15:50;9.98;61.40
36818;DHT22;22761;51.542;16.450;2022-12-29T06:18:18;10.02;61.44
36818;DHT22;22761;51.542;16.450;2022-12-29T06:20:46;10.03;61.32
36818;DHT22;22761;51.542;16.450;2022-12-29T06:23:14;10.03;61.32
36818;DHT22;22761;51.542;16.450;2022-12-29T06:25:42;10.05;61.41
36818;DHT22;22761;51.542;16.450;2022-12-29T06:28:09;10.10;61.34
36818;DHT22;22761;51.542;16.450;2022-12-29T06:30:37;10.07;61.43
36818;DHT22;22761;51.542;16.450;2022-12-29T06:33:04;10.14;61.43
36818;DHT22;22761;51.542;16.450;2022-12-29T06:35:31;10.12;61.40
36818;DHT22;22761;51.542;16.450;2022-12-29T06:37:59;10.14;61.36
36818;DHT22;22761;51.542;16.450;2022-12-29T06:40:26;10.16;61.29
36818;DHT22;22761;51.542;16.450;2022-12-29T06:43:12;10.17;61.25
36818;DHT22;22761;51.542;16.450;2022-12-29T06:45:51;10.17;61.43
36818;DHT22;22761;51.542;16.450;2022-12-29T06:48:17;10.19;61.51
36818;DHT22;22761;51.542;16.450;2022-12-29T06:50:44;10.16;61.45
36818;DHT22;22761;51.542;16.450;2022-12-29T06:53:11;10.16;61.34
36818;DHT22;22761;51.542;16.450;2022-12-29T06:55:38;10.16;61.54
36818;DHT22;22761;51.542;16.450;2022-12-29T06:58:05;10.17;61.42
36818;DHT22;22761;51.542;16.450;2022-12-29T07:00:32;10.16;61.38
36818;DHT22;22761;51.542;16.450;2022-12-29T07:02:59;10.17;61.17
36818;DHT22;22761;51.542;16.450;2022-12-29T07:05:27;10.17;61.31
36818;DHT22;22761;51.542;16.450;2022-12-29T07:07:55;10.12;61.38
36818;DHT22;22761;51.542;16.450;2022-12-29T07:10:23;10.14;61.49
36818;DHT22;22761;51.542;16.450;2022-12-29T07:12:50;10.14;61.51
36818;DHT22;22761;51.542;16.450;2022-12-29T07:15:17;10.14;61.57
36818;DHT22;22761;51.542;16.450;2022-12-29T07:17:44;10.14;61.43
36818;DHT22;22761;51.542;16.450;2022-12-29T07:20:11;10.12;61.54
36818;DHT22;22761;51.542;16.450;2022-12-29T07:22:38;10.13;61.49
36818;DHT22;22761;51.542;16.450;2022-12-29T07:25:07;10.12;61.38
36818;DHT22;22761;51.542;16.450;2022-12-29T07:27:34;10.12;61.45
36818;DHT22;22761;51.542;16.450;2022-12-29T07:30:01;10.09;61.29
36818;DHT22;22761;51.542;16.450;2022-12-29T07:32:28;10.07;61.15
36818;DHT22;22761;51.542;16.450;2022-12-29T07:34:57;10.09;61.14
36818;DHT22;22761;51.542;16.450;2022-12-29T07:37:24;10.06;60.97
36818;DHT22;22761;51.542;16.450;2022-12-29T07:39:51;10.05;61.07
36818;DHT22;22761;51.542;16.450;2022-12-29T07:42:18;10.05;60.82
36818;DHT22;22761;51.542;16.450;2022-12-29T07:44:46;10.03;61.01
36818;DHT22;22761;51.542;16.450;2022-12-29T07:47:28;10.05;61.11
36818;DHT22;22761;51.542;16.450;2022-12-29T07:49:55;10.06;61.50
36818;DHT22;22761;51.542;16.450;2022-12-29T07:52:22;10.03;61.58
36818;DHT22;22761;51.542;16.450;2022-12-29T07:54:49;10.03;61.86
36818;DHT22;22761;51.542;16.450;2022-12-29T07:57:17;10.02;61.80
36818;DHT22;22761;51.542;16.450;2022-12-29T07:59:44;10.00;62.24
36818;DHT22;22761;51.542;16.450;2022-12-29T08:02:11;10.00;62.38
36818;DHT22;22761;51.542;16.450;2022-12-29T08:04:38;9.99;62.39
36818;DHT22;22761;51.542;16.450;2022-12-29T08:07:06;9.99;62.27
36818;DHT22;22761;51.542;16.450;2022-12-29T08:09:33;9.99;62.08
36818;DHT22;22761;51.542;16.450;2022-12-29T08:12:00;10.00;61.70
36818;DHT22;22761;51.542;16.450;2022-12-29T08:14:27;10.00;61.79
36818;DHT22;22761;51.542;16.450;2022-12-29T08:16:54;10.02;61.36
36818;DHT22;22761;51.542;16.450;2022-12-29T08:19:22;10.03;61.49
36818;DHT22;22761;51.542;16.450;2022-12-29T08:21:50;10.02;61.67
36818;DHT22;22761;51.542;16.450;2022-12-29T08:24:22;10.05;61.40
36818;DHT22;22761;51.542;16.450;2022-12-29T08:26:57;10.00;61.14
36818;DHT22;22761;51.542;16.450;2022-12-29T08:29:25;9.99;61.33
36818;DHT22;22761;51.542;16.450;2022-12-29T08:31:53;9.96;61.61
36818;DHT22;22761;51.542;16.450;2022-12-29T08:34:20;9.93;61.59
36818;DHT22;22761;51.542;16.450;2022-12-29T08:36:47;9.93;61.61
36818;DHT22;22761;51.542;16.450;2022-12-29T08:39:15;9.89;61.70
36818;DHT22;22761;51.542;16.450;2022-12-29T08:41:42;9.90;61.84
36818;DHT22;22761;51.542;16.450;2022-12-29T08:44:09;9.89;61.90
36818;DHT22;22761;51.542;16.450;2022-12-29T08:46:36;9.92;62.07
36818;DHT22;22761;51.542;16.450;2022-12-29T08:49:03;9.92;62.10
36818;DHT22;22761;51.542;16.450;2022-12-29T08:51:32;9.93;62.15
36818;DHT22;22761;51.542;16.450;2022-12-29T08:54:00;9.96;62.22
36818;DHT22;22761;51.542;16.450;2022-12-29T08:56:28;9.98;62.35
36818;DHT22;22761;51.542;16.450;2022-12-29T08:58:56;10.05;62.32
36818;DHT22;22761;51.542;16.450;2022-12-29T09:01:24;10.06;62.46
36818;DHT22;22761;51.542;16.450;2022-12-29T09:03:51;10.14;62.36
36818;DHT22;22761;51.542;16.450;2022-12-29T09:06:20;10.19;62.40
36818;DHT22;22761;51.542;16.450;2022-12-29T09:08:47;10.26;62.26
36818;DHT22;22761;51.542;16.450;2022-12-29T09:11:21;10.33;62.22
36818;DHT22;22761;51.542;16.450;2022-12-29T09:13:49;10.43;62.35
36818;DHT22;22761;51.542;16.450;2022-12-29T09:16:18;10.52;62.18
36818;DHT22;22761;51.542;16.450;2022-12-29T09:18:46;10.64;61.80
36818;DHT22;22761;51.542;16.450;2022-12-29T09:21:13;10.71;61.72
36818;DHT22;22761;51.542;16.450;2022-12-29T09:23:41;10.79;61.81
36818;DHT22;22761;51.542;16.450;2022-12-29T09:26:08;10.86;61.33
36818;DHT22;22761;51.542;16.450;2022-12-29T09:28:35;10.96;61.32
36818;DHT22;22761;51.542;16.450;2022-12-29T09:31:03;11.02;61.27
36818;DHT22;22761;51.542;16.450;2022-12-29T09:33:31;11.10;61.12
36818;DHT22;22761;51.542;16.450;2022-12-29T09:36:01;11.24;60.64
36818;DHT22;22761;51.542;16.450;2022-12-29T09:38:29;11.33;60.68
36818;DHT22;22761;51.542;16.450;2022-12-29T09:41:20;11.45;60.25
36818;DHT22;22761;51.542;16.450;2022-12-29T09:46:46;11.72;59.65
36818;DHT22;22761;51.542;16.450;2022-12-29T09:49:25;11.82;59.04
36818;DHT22;22761;51.542;16.450;2022-12-29T09:51:55;11.72;59.15
36818;DHT22;22761;51.542;16.450;2022-12-29T09:54:48;11.40;59.57
36818;DHT22;22761;51.542;16.450;2022-12-29T09:57:25;11.14;59.76
36818;DHT22;22761;51.542;16.450;2022-12-29T10:00:18;11.02;60.23
36818;DHT22;22761;51.542;16.450;2022-12-29T10:02:54;10.95;61.01
36818;DHT22;22761;51.542;16.450;2022-12-29T10:05:35;10.88;61.38
36818;DHT22;22761;51.542;16.450;2022-12-29T10:08:25;10.89;61.76
36818;DHT22;22761;51.542;16.450;2022-12-29T10:10:54;10.90;61.87
36818;DHT22;22761;51.542;16.450;2022-12-29T10:14:01;10.95;61.91
36818;DHT22;22761;51.542;16.450;2022-12-29T10:17:05;11.24;62.30
36818;DHT22;22761;51.542;16.450;2022-12-29T10:24:37;12.53;59.28
36818;DHT22;22761;51.542;16.450;2022-12-29T10:27:11;12.51;58.75
36818;DHT22;22761;51.542;16.450;2022-12-29T10:29:48;12.23;59.45
36818;DHT22;22761;51.542;16.450;2022-12-29T10:35:03;11.79;60.82
36818;DHT22;22761;51.542;16.450;2022-12-29T10:37:46;11.78;61.54
36818;DHT22;22761;51.542;16.450;2022-12-29T10:40:42;11.79;61.31
36818;DHT22;22761;51.542;16.450;2022-12-29T10:43:28;11.78;61.61
36818;DHT22;22761;51.542;16.450;2022-12-29T10:46:00;11.82;61.61
36818;DHT22;22761;51.542;16.450;2022-12-29T10:48:33;11.88;61.90
36818;DHT22;22761;51.542;16.450;2022-12-29T10:51:06;11.94;61.88
36818;DHT22;22761;51.542;16.450;2022-12-29T10:53:48;12.06;61.18
36818;DHT22;22761;51.542;16.450;2022-12-29T10:56:35;12.23;60.65
36818;DHT22;22761;51.542;16.450;2022-12-29T10:59:25;12.37;60.29
36818;DHT22;22761;51.542;16.450;2022-12-29T11:07:31;12.92;59.96
36818;DHT22;22761;51.542;16.450;2022-12-29T11:13:18;13.18;58.77
36818;DHT22;22761;51.542;16.450;2022-12-29T11:15:48;13.24;57.87
36818;DHT22;22761;51.542;16.450;2022-12-29T11:18:36;13.27;58.41
36818;DHT22;22761;51.542;16.450;2022-12-29T11:21:09;13.32;58.15
36818;DHT22;22761;51.542;16.450;2022-12-29T11:23:38;13.42;57.93
36818;DHT22;22761;51.542;16.450;2022-12-29T11:26:21;13.53;57.12
36818;DHT22;22761;51.542;16.450;2022-12-29T11:29:25;13.70;56.02
36818;DHT22;22761;51.542;16.450;2022-12-29T11:31:58;13.87;56.16
36818;DHT22;22761;51.542;16.450;2022-12-29T11:34:34;14.10;55.43
36818;DHT22;22761;51.542;16.450;2022-12-29T11:37:18;14.32;55.53
36818;DHT22;22761;51.542;16.450;2022-12-29T11:39:58;14.63;54.33
36818;DHT22;22761;51.542;16.450;2022-12-29T11:42:33;14.97;54.28
36818;DHT22;22761;51.542;16.450;2022-12-29T11:45:23;15.29;52.27
36818;DHT22;22761;51.542;16.450;2022-12-29T11:47:56;15.52;51.23
36818;DHT22;22761;51.542;16.450;2022-12-29T11:50:28;15.65;50.82
36818;DHT22;22761;51.542;16.450;2022-12-29T11:53:03;15.69;51.22
36818;DHT22;22761;51.542;16.450;2022-12-29T11:55:32;15.66;50.13
36818;DHT22;22761;51.542;16.450;2022-12-29T11:58:02;15.63;50.79
36818;DHT22;22761;51.542;16.450;2022-12-29T12:00:34;15.56;50.58
36818;DHT22;22761;51.542;16.450;2022-12-29T12:03:15;15.52;50.71
36818;DHT22;22761;51.542;16.450;2022-12-29T12:05:56;15.52;51.08
36818;DHT22;22761;51.542;16.450;2022-12-29T12:08:55;15.52;50.72
36818;DHT22;22761;51.542;16.450;2022-12-29T12:11:38;15.55;51.41
36818;DHT22;22761;51.542;16.450;2022-12-29T12:14:26;15.55;51.47
36818;DHT22;22761;51.542;16.450;2022-12-29T12:17:08;15.53;50.50
36818;DHT22;22761;51.542;16.450;2022-12-29T12:20:00;15.48;50.55
36818;DHT22;22761;51.542;16.450;2022-12-29T12:22:50;15.41;51.55
36818;DHT22;22761;51.542;16.450;2022-12-29T12:25:19;15.42;51.27
36818;DHT22;22761;51.542;16.450;2022-12-29T12:28:10;15.42;50.51
36818;DHT22;22761;51.542;16.450;2022-12-29T12:30:43;15.29;50.96
36818;DHT22;22761;51.542;16.450;2022-12-29T12:36:28;15.12;51.31
36818;DHT22;22761;51.542;16.450;2022-12-29T12:39:38;14.95;51.24
36818;DHT22;22761;51.542;16.450;2022-12-29T12:42:39;14.75;51.83
36818;DHT22;22761;51.542;16.450;2022-12-29T13:00:13;13.69;54.35
36818;DHT22;22761;51.542;16.450;2022-12-29T13:17:37;13.07;56.59
36818;DHT22;22761;51.542;16.450;2022-12-29T13:20:28;12.99;56.83
36818;DHT22;22761;51.542;16.450;2022-12-29T13:26:12;12.73;57.31
36818;DHT22;22761;51.542;16.450;2022-12-29T13:29:16;12.62;57.84
36818;DHT22;22761;51.542;16.450;2022-12-29T13:32:00;12.56;58.46
36818;DHT22;22761;51.542;16.450;2022-12-29T13:37:14;12.34;59.10
36818;DHT22;22761;51.542;16.450;2022-12-29T13:39:52;12.23;59.57
36818;DHT22;22761;51.542;16.450;2022-12-29T13:42:21;12.10;59.68
36818;DHT22;22761;51.542;16.450;2022-12-29T13:44:54;11.97;59.60
36818;DHT22;22761;51.542;16.450;2022-12-29T13:47:46;11.82;59.80
36818;DHT22;22761;51.542;16.450;2022-12-29T13:50:17;11.69;59.90
36818;DHT22;22761;51.542;16.450;2022-12-29T13:53:06;11.57;60.02
36818;DHT22;22761;51.542;16.450;2022-12-29T14:01:40;11.17;60.94
36818;DHT22;22761;51.542;16.450;2022-12-29T14:04:21;11.06;61.12
36818;DHT22;22761;51.542;16.450;2022-12-29T14:06:45;11.00;61.41
36818;DHT22;22761;51.542;16.450;2022-12-29T14:12:38;10.90;61.73
36818;DHT22;22761;51.542;16.450;2022-12-29T14:17:44;10.83;61.68
36818;DHT22;22761;51.542;16.450;2022-12-29T14:20:21;10.83;61.98
36818;DHT22;22761;51.542;16.450;2022-12-29T14:28:45;10.68;62.24
36818;DHT22;22761;51.542;16.450;2022-12-29T14:37:02;10.74;62.93
36818;DHT22;22761;51.542;16.450;2022-12-29T14:39:43;11.13;62.51
36818;DHT22;22761;51.542;16.450;2022-12-29T14:42:14;11.41;62.12
36818;DHT22;22761;51.542;16.450;2022-12-29T14:45:01;11.62;60.88
36818;DHT22;22761;51.542;16.450;2022-12-29T14:47:37;11.78;60.32
36818;DHT22;22761;51.542;16.450;2022-12-29T14:50:12;11.96;59.29
36818;DHT22;22761;51.542;16.450;2022-12-29T14:58:44;11.18;60.03
36818;DHT22;22761;51.542;16.450;2022-12-29T15:01:20;10.90;60.68
36818;DHT22;22761;51.542;16.450;2022-12-29T15:03:56;10.70;61.33
36818;DHT22;22761;51.542;16.450;2022-12-29T15:06:27;10.51;61.75
36818;DHT22;22761;51.542;16.450;2022-12-29T15:09:04;10.37;62.32
36818;DHT22;22761;51.542;16.450;2022-12-29T15:11:42;10.44;63.01
36818;DHT22;22761;51.542;16.450;2022-12-29T15:14:38;10.75;62.72
36818;DHT22;22761;51.542;16.450;2022-12-29T15:17:20;11.07;62.15
36818;DHT22;22761;51.542;16.450;2022-12-29T15:19:39;11.30;61.41
36818;DHT22;22761;51.542;16.450;2022-12-29T15:22:08;11.48;60.55
36818;DHT22;22761;51.542;16.450;2022-12-29T15:24:42;11.61;60.26
36818;DHT22;22761;51.542;16.450;2022-12-29T15:27:20;11.69;60.02
36818;DHT22;22761;51.542;16.450;2022-12-29T15:29:47;11.75;59.18
36818;DHT22;22761;51.542;16.450;2022-12-29T15:32:26;11.62;59.00
36818;DHT22;22761;51.542;16.450;2022-12-29T15:34:57;11.26;59.23
36818;DHT22;22761;51.542;16.450;2022-12-29T15:37:35;10.96;60.03
36818;DHT22;22761;51.542;16.450;2022-12-29T15:40:04;10.70;60.61
36818;DHT22;22761;51.542;16.450;2022-12-29T15:45:21;10.28;61.77
36818;DHT22;22761;51.542;16.450;2022-12-29T15:47:56;10.12;62.66
36818;DHT22;22761;51.542;16.450;2022-12-29T15:50:31;10.20;63.08
36818;DHT22;22761;51.542;16.450;2022-12-29T15:53:01;10.51;62.92
36818;DHT22;22761;51.542;16.450;2022-12-29T15:55:35;10.75;62.47
36818;DHT22;22761;51.542;16.450;2022-12-29T15:58:17;10.95;61.62
36818;DHT22;22761;51.542;16.450;2022-12-29T16:00:36;11.06;60.96
36818;DHT22;22761;51.542;16.450;2022-12-29T16:03:10;11.17;60.49
36818;DHT22;22761;51.542;16.450;2022-12-29T16:05:39;11.26;60.65
36818;DHT22;22761;51.542;16.450;2022-12-29T16:08:32;11.33;60.06
36818;DHT22;22761;51.542;16.450;2022-12-29T16:11:07;11.41;59.43
36818;DHT22;22761;51.542;16.450;2022-12-29T16:13:37;11.43;59.62
36818;DHT22;22761;51.542;16.450;2022-12-29T16:16:29;11.44;59.67
36818;DHT22;22761;51.542;16.450;2022-12-29T16:18:58;11.51;58.84
36818;DHT22;22761;51.542;16.450;2022-12-29T16:21:32;11.20;58.95
36818;DHT22;22761;51.542;16.450;2022-12-29T16:24:06;10.78;59.64
36818;DHT22;22761;51.542;16.450;2022-12-29T16:26:36;10.48;60.51
36818;DHT22;22761;51.542;16.450;2022-12-29T16:29:06;10.23;61.19
36818;DHT22;22761;51.542;16.450;2022-12-29T16:31:55;10.03;62.01
36818;DHT22;22761;51.542;16.450;2022-12-29T16:34:30;9.85;62.47
36818;DHT22;22761;51.542;16.450;2022-12-29T16:37:19;9.89;63.54
36818;DHT22;22761;51.542;16.450;2022-12-29T16:39:38;10.20;63.37
36818;DHT22;22761;51.542;16.450;2022-12-29T16:42:36;10.48;63.02
36818;DHT22;22761;51.542;16.450;2022-12-29T16:48:18;10.85;61.80
36818;DHT22;22761;51.542;16.450;2022-12-29T16:50:47;10.99;61.71
36818;DHT22;22761;51.542;16.450;2022-12-29T16:53:37;11.06;61.23
36818;DHT22;22761;51.542;16.450;2022-12-29T16:56:24;11.11;60.96
36818;DHT22;22761;51.542;16.450;2022-12-29T16:59:09;11.24;60.51
36818;DHT22;22761;51.542;16.450;2022-12-29T17:01:40;11.28;60.43
36818;DHT22;22761;51.542;16.450;2022-12-29T17:04:11;11.34;60.23
36818;DHT22;22761;51.542;16.450;2022-12-29T17:06:39;11.40;60.10
36818;DHT22;22761;51.542;16.450;2022-12-29T17:09:22;11.47;59.65
36818;DHT22;22761;51.542;16.450;2022-12-29T17:11:57;11.48;59.54
36818;DHT22;22761;51.542;16.450;2022-12-29T17:17:40;11.16;59.69
36818;DHT22;22761;51.542;16.450;2022-12-29T17:21:05;10.68;60.79
36818;DHT22;22761;51.542;16.450;2022-12-29T17:23:36;10.23;61.59
36818;DHT22;22761;51.542;16.450;2022-12-29T17:26:12;9.95;62.67
36818;DHT22;22761;51.542;16.450;2022-12-29T17:28:48;9.89;63.87
36818;DHT22;22761;51.542;16.450;2022-12-29T17:31:16;10.13;63.95
36818;DHT22;22761;51.542;16.450;2022-12-29T17:33:44;10.37;63.67
36818;DHT22;22761;51.542;16.450;2022-12-29T17:36:14;10.51;63.38
36818;DHT22;22761;51.542;16.450;2022-12-29T17:38:58;10.65;63.13
36818;DHT22;22761;51.542;16.450;2022-12-29T17:41:26;10.78;62.42
36818;DHT22;22761;51.542;16.450;2022-12-29T17:43:56;10.92;62.13
36818;DHT22;22761;51.542;16.450;2022-12-29T17:46:33;11.02;61.55
36818;DHT22;22761;51.542;16.450;2022-12-29T17:49:10;11.11;61.31
36818;DHT22;22761;51.542;16.450;2022-12-29T17:51:46;11.23;60.84
36818;DHT22;22761;51.542;16.450;2022-12-29T17:54:25;11.31;60.56
36818;DHT22;22761;51.542;16.450;2022-12-29T17:56:53;11.35;60.56
36818;DHT22;22761;51.542;16.450;2022-12-29T17:59:28;11.35;60.35
36818;DHT22;22761;51.542;16.450;2022-12-29T18:01:58;11.43;60.21
36818;DHT22;22761;51.542;16.450;2022-12-29T18:04:27;11.47;59.99
36818;DHT22;22761;51.542;16.450;2022-12-29T18:06:56;11.47;60.12
36818;DHT22;22761;51.542;16.450;2022-12-29T18:09:25;11.47;60.01
36818;DHT22;22761;51.542;16.450;2022-12-29T18:11:53;11.50;59.86
36818;DHT22;22761;51.542;16.450;2022-12-29T18:14:21;11.48;59.75